Dillant Hopkins Airport Keene US
ICAO: KEEN
IATA: EEN
Category: Medium
Scheduled Services: No

Elevation: 488 ft
TransAlt. 18000 ft.

Airport Communications:
AWOS 3:119.025
BOSTON CNTR:123.75
BANGOR RDO:109.4
CTAF/UNICOM:123

KEEN Zoom In..

Runways:

(A) RW 02 length 6201 ft width 100 ft
ILS 108.90 / hdg 18

(B) RW 14 length 4001 ft width 150 ft
---- / hdg 142

(C) RW 20 length 6201 ft width 100 ft
---- / hdg 198

(D) RW 32 length 4001 ft width 150 ft
---- / hdg 322

Location; KEEN
Day. 29 / Time. 18.56 Zulu
* Altimeter: 30.05
* Temperature: 10° c. 50°f.
* Wind from: 200° Speed 07 kn.
Dewpoint: -02° c.
Visibility: 10 Statute Miles.
Clouds: Clear (automated report).

KEEN 291856Z AUTO 20007KT 10SM CLR 10/M02 A3005 RMK AO2 SLP183 T01001022 $

Going to: --> -->


Wind From 200°
Speed 07 kn.

 
 
jpsmedia worldairports.se 2020   terms of use